Kwintsheul, Netherlands
Current Conditions -  °F | °C
As of 6:25 AM on Tuesday 21 Oct 2014 (Local Time) from EHRD Reporting Station
Broken Clouds Broken Clouds  
Wind Chill: 55°   Ceiling: 1500
Heat Index: 55°   Visibility: 6mi
Dew Point: 52°   Wind: 14mph
Humidity: 88%   Direction: 190°S
Pressure: 29.71"   Gusts: NA
Location:  52.01°N, 4.26°E
Report Text: EHRD 210425Z AUTO 19012KT 160V220 9999 FEW013 BKN015 BKN02513/11 Q1006 NOSIG
Loading
Personal Weather Stations






























Interactive Weather Map
Tropical Storm Tracking
New forecast layout! Learn more

10-Day Weather Forecast

Advertisements
Track Severe Weather on mobile